Main page
METAR-TAF:

METAR-TAF

Airports :

Rabat–Salé Airport

Rabat, Morocco

latitude: 34-03N, longitude: 006-46W, elevation: 84 m

Current weather observation

The report was made 41 minutes ago, at 14:30 UTC
Wind 15 kt from the North, varying between North/Northwest and Northeast
Temperature 24°C
Humidity 61%
Pressure 1017 hPa
Visibility: 6000 m

METAR: GMME 211430Z 01015KT 330V040 6000 NSC 24/16 Q1017 NOSIG

Time: 16:11 (15:11 UTC)

Forecast

The report was made 4 hours and 11 minutes ago, at 11:00 UTC
Forecast valid from 21 at 12 UTC to 22 at 18 UTC
Wind 10 kt from the North
Visibility: 6000 m
Temporary
from 21 at 12 UTC to 21 at 18 UTC
Wind 16 kt from the North with gusts up to 26 kt
Temporary
from 21 at 23 UTC to 22 at 05 UTC
Wind 6 kt from the Southeast

TAF: GMME 211100Z 2112/2218 36010KT 6000 NSC TEMPO 2112/2118 35016G26KT TEMPO 2123/2205 14006KT

Weather observations and forecasts of more than 4000 airports (METAR and TAF reports).

The available stations are represented by yellow and red dots on the map.

Hover mouse over dot to see the name of the station.

Then click to see weather observations and forecasts.

To change the map : click on the green buttons with a black cross to zoom in, on the green button with a dash to zoom out, or on the green arrows for adjacent maps.


METAR-TAF: